Time;durP1;ratioP1;P1;durP2;ratioP2;P2;SDS_P1;SDS_P2;PMS_P1;PMS_P2;Temp;Humidity;BMP_temperature;BMP_pressure;BME280_temperature;BME280_humidity;BME280_pressure;Samples;Min_cycle;Max_cycle;Signal;HPM_P1;HPM_P2
2021/04/27 00:02:33;;;;;;;16.35;7.80;;;11.90;46.10;;;;;;10187133;28;20478;-76
2021/04/27 00:07:28;;;;;;;14.60;7.03;;;11.90;46.00;;;;;;10186393;28;20052;-77
2021/04/27 00:12:23;;;;;;;17.58;7.28;;;11.90;46.10;;;;;;10168531;28;20052;-77
2021/04/27 00:17:16;;;;;;;16.70;7.20;;;11.80;46.20;;;;;;10185154;28;20048;-77
2021/04/27 00:22:09;;;;;;;16.67;6.90;;;11.80;46.30;;;;;;10186460;28;20044;-77
2021/04/27 00:27:03;;;;;;;16.00;6.85;;;11.80;46.10;;;;;;10185610;28;20051;-81
2021/04/27 00:31:58;;;;;;;13.50;7.32;;;11.80;46.50;;;;;;10185892;28;20108;-81
2021/04/27 00:36:53;;;;;;;13.40;6.78;;;11.80;46.40;;;;;;10184511;28;20433;-82
2021/04/27 00:41:49;;;;;;;16.80;7.38;;;11.70;46.80;;;;;;10185076;28;20486;-80
2021/04/27 00:46:43;;;;;;;15.15;7.57;;;11.50;47.00;;;;;;10183627;28;20040;-77
2021/04/27 00:51:38;;;;;;;14.55;6.85;;;11.40;47.60;;;;;;10184545;28;20538;-77
2021/04/27 00:56:33;;;;;;;15.82;7.70;;;11.20;48.10;;;;;;10183266;28;20403;-80
2021/04/27 01:01:26;;;;;;;14.43;7.10;;;11.20;48.30;;;;;;10166807;28;20048;-79
2021/04/27 01:06:20;;;;;;;18.40;7.78;;;11.10;48.60;;;;;;10184187;28;20486;-78
2021/04/27 01:11:23;;;;;;;16.08;7.00;;;11.10;48.60;;;;;;10182832;28;20096;-79
2021/04/27 01:16:19;;;;;;;16.13;7.13;;;11.10;48.80;;;;;;10182870;28;20048;-79
2021/04/27 01:21:13;;;;;;;18.33;8.48;;;11.10;48.70;;;;;;10182623;28;20414;-79
2021/04/27 01:26:16;;;;;;;19.23;7.45;;;11.00;49.10;;;;;;10181943;28;20072;-78
2021/04/27 01:31:16;;;;;;;19.65;7.85;;;11.10;49.40;;;;;;10165759;28;20401;-78
2021/04/27 01:36:13;;;;;;;20.80;8.48;;;13.30;50.50;;;;;;10181999;28;20048;-78
2021/04/27 01:41:21;;;;;;;16.33;7.43;;;11.00;49.80;;;;;;10167265;28;20058;-78
2021/04/27 01:46:17;;;;;;;15.60;7.90;;;11.00;50.00;;;;;;10182408;28;20478;-80
2021/04/27 01:51:13;;;;;;;15.80;7.80;;;10.90;50.10;;;;;;10182190;28;20127;-76
2021/04/27 01:56:25;;;;;;;20.00;9.52;;;10.90;50.40;;;;;;10181977;28;20051;-77
2021/04/27 02:01:22;;;;;;;16.13;7.22;;;10.80;50.60;;;;;;10164577;28;20055;-78
2021/04/27 02:06:16;;;;;;;17.52;8.32;;;9.80;50.40;;;;;;10180743;28;20117;-79
2021/04/27 02:11:13;;;;;;;18.95;7.65;;;10.70;50.90;;;;;;10180691;28;20067;-82
2021/04/27 02:16:08;;;;;;;15.63;8.07;;;10.70;50.90;;;;;;10163593;28;20077;-79
2021/04/27 02:21:10;;;;;;;13.82;7.95;;;10.70;51.00;;;;;;10148699;28;20078;-79
2021/04/27 02:26:23;;;;;;;18.90;8.10;;;10.70;51.00;;;;;;10179909;28;20063;-77
2021/04/27 02:31:26;;;;;;;14.55;7.47;;;10.60;51.10;;;;;;10164307;28;20048;-77
2021/04/27 02:36:24;;;;;;;19.25;8.45;;;10.50;51.10;;;;;;10181573;28;20570;-76
2021/04/27 02:41:31;;;;;;;17.55;8.48;;;10.50;51.30;;;;;;10180224;28;20429;-77
2021/04/27 02:46:30;;;;;;;16.95;8.23;;;10.50;51.40;;;;;;10179181;28;20506;-78
2021/04/27 02:51:29;;;;;;;20.25;9.20;;;10.40;51.60;;;;;;10180203;28;20048;-78
2021/04/27 02:56:31;;;;;;;16.05;8.25;;;10.50;51.90;;;;;;10178766;28;20036;-77
2021/04/27 03:01:25;;;;;;;14.45;8.07;;;10.50;52.10;;;;;;10178722;28;20061;-78
2021/04/27 03:06:20;;;;;;;18.80;8.82;;;10.40;52.30;;;;;;10178578;28;20519;-78
2021/04/27 03:11:38;;;;;;;15.70;7.35;;;10.30;52.30;;;;;;10181291;28;20044;-77
2021/04/27 03:16:30;;;;;;;17.35;8.48;;;10.10;52.50;;;;;;10179130;28;20047;-78
2021/04/27 03:21:25;;;;;;;16.90;8.02;;;10.00;52.80;;;;;;10178491;28;20067;-77
2021/04/27 03:26:21;;;;;;;15.15;8.65;;;9.90;53.10;;;;;;10185515;28;20044;-77
2021/04/27 03:31:35;;;;;;;12.82;8.40;;;9.90;53.30;;;;;;10187316;28;20056;-79
2021/04/27 03:36:28;;;;;;;17.67;8.85;;;10.00;53.40;;;;;;10187585;28;20048;-79
2021/04/27 03:41:24;;;;;;;15.00;7.93;;;9.50;55.30;;;;;;10187291;28;20334;-90
2021/04/27 03:46:19;;;;;;;14.95;8.15;;;10.50;54.20;;;;;;10188487;28;20043;-85
2021/04/27 03:51:15;;;;;;;17.33;8.80;;;10.00;53.90;;;;;;10187146;28;20409;-89
2021/04/27 03:56:08;;;;;;;18.15;9.43;;;10.00;53.90;;;;;;10188459;28;20068;-88
2021/04/27 04:01:03;;;;;;;18.65;9.75;;;10.00;54.00;;;;;;10187466;28;20094;-89
2021/04/27 04:05:58;;;;;;;20.23;8.73;;;11.50;55.00;;;;;;10186652;28;20501;-85
2021/04/27 04:11:25;;;;;;;19.73;9.02;;;10.20;54.20;;;;;;10186999;28;20044;-86
2021/04/27 04:16:20;;;;;;;16.33;9.00;;;10.10;54.40;;;;;;10169579;28;20483;-89
2021/04/27 04:21:15;;;;;;;19.25;9.23;;;10.10;54.40;;;;;;10170797;28;20055;-87
2021/04/27 04:26:26;;;;;;;18.45;8.30;;;11.60;54.20;;;;;;10188663;28;20066;-86
2021/04/27 04:31:40;;;;;;;19.48;8.52;;;;;;;;;;10156594;28;20052;-89
2021/04/27 04:36:54;;;;;;;13.23;7.20;;;;;;;;;;10185262;28;20048;-83
2021/04/27 04:42:07;;;;;;;15.95;8.02;;;10.50;54.60;;;;;;10184353;28;20114;-84
2021/04/27 04:47:19;;;;;;;14.57;8.50;;;9.70;53.20;;;;;;10188456;28;20504;-89
2021/04/27 04:52:34;;;;;;;14.88;7.38;;;;;;;;;;10177202;28;20052;-89
2021/04/27 04:57:58;;;;;;;13.90;7.72;;;;;;;;;;10187194;28;20048;-86
2021/04/27 05:03:09;;;;;;;16.42;8.45;;;9.20;53.70;;;;;;10183896;28;20506;-87
2021/04/27 05:08:35;;;;;;;18.58;8.52;;;10.70;53.20;;;;;;10191464;28;20201;-86
2021/04/27 05:14:05;;;;;;;15.15;7.82;;;;;;;;;;10200437;28;20055;-92
2021/04/27 05:18:59;;;;;;;15.73;8.05;;;;;;;;;;10221066;28;20468;-92
2021/04/27 05:23:57;;;;;;;19.85;8.70;;;11.10;53.00;;;;;;10223488;28;20126;-93
2021/04/27 05:28:52;;;;;;;15.15;7.78;;;8.80;53.00;;;;;;10232834;28;20054;-90
2021/04/27 05:33:49;;;;;;;14.90;8.00;;;;;;;;;;10181691;28;20123;-86
2021/04/27 05:38:42;;;;;;;16.63;8.35;;;10.60;54.40;;;;;;10167242;28;20156;-84
2021/04/27 05:43:37;;;;;;;15.68;7.60;;;11.00;54.40;;;;;;10167390;28;20508;-85
2021/04/27 05:48:31;;;;;;;13.27;7.78;;;10.50;54.50;;;;;;10166937;28;20070;-87
2021/04/27 05:53:26;;;;;;;16.98;8.15;;;12.00;53.70;;;;;;10192204;28;20052;-90
2021/04/27 05:58:20;;;;;;;20.55;8.80;;;9.60;51.30;;;;;;10192941;28;20039;-89
2021/04/27 06:03:16;;;;;;;15.38;8.63;;;;;;;;;;10186304;28;20043;-87
2021/04/27 06:08:09;;;;;;;10.50;5.85;;;;;;;;;;10197382;28;20127;-89
2021/04/27 06:13:04;;;;;;;15.05;6.85;;;10.30;52.70;;;;;;10201519;28;20051;-90
2021/04/27 06:17:57;;;;;;;13.07;7.28;;;10.80;53.00;;;;;;10191786;28;20101;-88
2021/04/27 06:22:51;;;;;;;18.40;7.53;;;11.10;52.90;;;;;;10169261;28;20059;-82
2021/04/27 06:27:48;;;;;;;16.73;8.60;;;;;;;;;;10165019;28;20458;-81
2021/04/27 06:32:47;;;;;;;19.10;8.77;;;;;;;;;;10182440;28;20103;-81
2021/04/27 06:37:42;;;;;;;18.00;9.10;;;;;;;;;;10184927;28;20078;-82
2021/04/27 06:42:36;;;;;;;18.80;8.57;;;10.60;54.60;;;;;;10182759;28;20477;-84
2021/04/27 06:47:32;;;;;;;18.92;8.68;;;;;;;;;;10182132;28;20052;-85
2021/04/27 06:52:28;;;;;;;16.48;9.55;;;;;;;;;;10180157;28;20177;-81
2021/04/27 06:57:22;;;;;;;18.75;8.10;;;;;;;;;;10161098;28;20228;-82
2021/04/27 07:02:19;;;;;;;15.88;8.27;;;;;;;;;;10179876;28;20095;-81
2021/04/27 07:07:14;;;;;;;19.25;8.90;;;12.40;54.10;;;;;;10182668;28;20036;-80
2021/04/27 07:12:09;;;;;;;19.80;8.95;;;;;;;;;;10179216;28;20044;-80
2021/04/27 07:17:07;;;;;;;20.63;8.52;;;11.60;51.90;;;;;;10178862;28;20169;-79
2021/04/27 07:22:02;;;;;;;12.32;7.50;;;;;;;;;;10162054;28;20048;-79
2021/04/27 07:26:57;;;;;;;17.63;8.07;;;;;;;;;;10179202;28;20044;-82
2021/04/27 07:31:55;;;;;;;16.88;8.80;;;;;;;;;;10180488;28;20531;-84
2021/04/27 07:36:52;;;;;;;17.00;8.95;;;;;;;;;;10164627;28;20052;-85
2021/04/27 07:41:49;;;;;;;16.40;8.63;;;;;;;;;;10178325;28;20048;-84
2021/04/27 07:46:46;;;;;;;18.35;8.43;;;;;;;;;;10145878;28;20140;-86
2021/04/27 07:51:41;;;;;;;16.88;7.97;;;;;;;;;;10148086;28;20066;-84
2021/04/27 07:56:40;;;;;;;15.93;8.55;;;14.20;50.60;;;;;;10180429;28;20119;-80
2021/04/27 08:01:37;;;;;;;18.38;8.57;;;12.00;51.70;;;;;;10131506;28;20454;-78
2021/04/27 08:06:33;;;;;;;19.85;8.70;;;;;;;;;;10161126;28;20067;-76
2021/04/27 08:11:33;;;;;;;;;;;12.30;49.00;;;;;;10180399;28;20507;-79
2021/04/27 08:16:31;;;;;;;15.27;7.90;;;13.80;49.20;;;;;;10168877;28;19924;-80
2021/04/27 08:21:31;;;;;;;20.00;8.15;;;;;;;;;;10184432;28;20548;-81
2021/04/27 08:26:28;;;;;;;14.80;7.18;;;13.60;54.30;;;;;;10169023;28;20383;-80
2021/04/27 08:31:24;;;;;;;16.63;7.38;;;;;;;;;;10184934;28;20498;-79
2021/04/27 08:36:22;;;;;;;18.80;7.40;;;;;;;;;;10168651;28;20131;-80
2021/04/27 08:41:17;;;;;;;12.95;6.13;;;;;;;;;;10183669;28;20044;-82
2021/04/27 08:46:15;;;;;;;15.32;6.90;;;;;;;;;;10186324;28;20051;-81
2021/04/27 08:51:15;;;;;;;12.52;6.93;;;13.50;48.30;;;;;;10187026;28;20052;-80
2021/04/27 08:56:10;;;;;;;13.27;7.13;;;;;;;;;;10185581;28;20470;-80
2021/04/27 09:01:03;;;;;;;13.95;7.18;;;;;;;;;;10166972;28;20048;-78
2021/04/27 09:06:14;;;;;;;11.68;5.53;;;12.00;49.00;;;;;;10166057;28;20482;-78
2021/04/27 09:11:46;;;;;;;16.38;6.78;;;13.50;47.80;;;;;;10183891;28;20177;-77
2021/04/27 09:16:57;;;;;;;14.25;6.28;;;14.20;48.50;;;;;;10090833;28;20056;-77
2021/04/27 09:22:03;;;;;;;16.17;6.35;;;;;;;;;;10180475;28;20404;-79
2021/04/27 09:26:58;;;;;;;12.35;6.18;;;12.20;48.60;;;;;;10163447;28;20096;-79
2021/04/27 09:31:56;;;;;;;11.93;5.72;;;;;;;;;;10183189;28;20088;-77
2021/04/27 09:37:00;;;;;;;10.40;6.22;;;13.50;46.10;;;;;;10183245;28;20115;-78
2021/04/27 09:42:01;;;;;;;11.10;6.28;;;12.30;47.60;;;;;;10180289;28;20541;-79
2021/04/27 09:47:11;;;;;;;13.45;6.68;;;14.60;47.60;;;;;;10180589;28;20140;-78
2021/04/27 09:52:14;;;;;;;14.82;6.18;;;;;;;;;;10181341;28;20132;-80
2021/04/27 09:57:29;;;;;;;10.93;5.38;;;15.20;47.30;;;;;;10181875;28;20122;-78
2021/04/27 10:02:27;;;;;;;13.23;5.90;;;13.70;44.30;;;;;;10165667;28;20177;-78
2021/04/27 10:07:26;;;;;;;11.35;4.90;;;;;;;;;;10183020;28;20804;-81
2021/04/27 10:12:21;;;;;;;10.63;5.78;;;14.80;48.80;;;;;;10165457;28;20454;-80
2021/04/27 10:17:23;;;;;;;8.20;5.03;;;14.00;46.30;;;;;;10149601;28;20072;-79
2021/04/27 10:22:18;;;;;;;10.25;5.95;;;;;;;;;;10182636;28;20397;-80
2021/04/27 10:27:14;;;;;;;15.73;5.75;;;;;;;;;;10179900;28;20461;-81
2021/04/27 10:32:20;;;;;;;11.00;5.70;;;14.00;43.40;;;;;;10183452;28;20056;-83
2021/04/27 10:37:16;;;;;;;13.98;6.78;;;;;;;;;;10180573;28;20482;-80
2021/04/27 10:42:19;;;;;;;9.15;4.70;;;14.80;43.90;;;;;;10179272;28;20180;-80
2021/04/27 10:47:18;;;;;;;13.93;7.63;;;;;;;;;;10180308;28;20479;-83
2021/04/27 10:52:28;;;;;;;;;;;14.80;41.90;;;;;;10161989;28;20085;-82
2021/04/27 10:57:24;;;;;;;9.55;4.72;;;;;;;;;;10161883;28;19924;-80
2021/04/27 11:02:24;;;;;;;14.73;6.10;;;;;;;;;;10178930;28;20521;-80
2021/04/27 11:07:36;;;;;;;9.60;5.07;;;16.10;42.30;;;;;;10179338;28;20190;-82
2021/04/27 11:12:33;;;;;;;9.20;4.80;;;;;;;;;;10181679;28;20059;-79
2021/04/27 11:17:37;;;;;;;16.08;4.55;;;16.20;41.10;;;;;;10178634;28;20508;-82
2021/04/27 11:22:34;;;;;;;14.43;4.93;;;;;;;;;;10180850;28;20070;-80
2021/04/27 11:27:31;;;;;;;9.13;4.65;;;17.40;40.50;;;;;;10177196;28;20455;-75
2021/04/27 11:32:32;;;;;;;10.73;4.55;;;16.90;40.30;;;;;;10178629;28;20092;-75
2021/04/27 11:37:27;;;;;;;7.70;4.10;;;;;;;;;;10178038;28;20051;-78
2021/04/27 11:42:27;;;;;;;9.63;5.35;;;16.70;34.60;;;;;;10179869;28;20133;-77
2021/04/27 11:47:24;;;;;;;9.65;5.00;;;16.80;34.90;;;;;;10187826;28;20052;-85
2021/04/27 11:52:52;;;;;;;10.52;4.05;;;19.40;38.50;;;;;;10189650;28;20083;-83
2021/04/27 11:57:48;;;;;;;6.57;4.10;;;18.00;38.30;;;;;;10190288;28;20263;-81
2021/04/27 12:02:42;;;;;;;14.45;4.78;;;;;;;;;;10205748;28;20118;-79
2021/04/27 12:07:36;;;;;;;8.55;4.80;;;17.80;36.20;;;;;;10188529;28;20120;-79
2021/04/27 12:12:32;;;;;;;10.65;4.57;;;18.90;33.20;;;;;;10187933;28;20513;-80
2021/04/27 12:17:29;;;;;;;13.82;4.78;;;21.60;31.20;;;;;;10186484;28;20054;-83
2021/04/27 12:22:25;;;;;;;10.23;4.82;;;21.60;28.60;;;;;;10186486;28;20071;-82
2021/04/27 12:27:24;;;;;;;10.30;4.40;;;;;;;;;;10188719;28;20052;-84
2021/04/27 12:32:31;;;;;;;9.27;4.70;;;;;;;;;;10168947;28;20054;-80
2021/04/27 12:37:26;;;;;;;13.80;4.88;;;;;;;;;;10179568;28;20439;-82
2021/04/27 12:42:27;;;;;;;10.50;5.07;;;21.70;29.00;;;;;;10182618;28;20067;-79
2021/04/27 12:47:23;;;;;;;;;;;;;;;;;;10183805;28;20295;-83
2021/04/27 12:52:19;;;;;;;10.38;5.05;;;21.20;29.70;;;;;;10184834;28;20298;-81
2021/04/27 12:57:15;;;;;;;8.73;4.47;;;;;;;;;;10165950;28;20052;-82
2021/04/27 13:02:19;;;;;;;9.63;4.55;;;20.90;32.80;;;;;;10184591;28;20044;-89
2021/04/27 13:07:24;;;;;;;12.07;5.70;;;;;;;;;;10184345;28;20059;-82
2021/04/27 13:12:21;;;;;;;10.98;4.80;;;;;;;;;;10186256;28;20131;-81
2021/04/27 13:17:33;;;;;;;9.52;4.43;;;21.10;30.40;;;;;;10174288;28;20100;-83
2021/04/27 13:22:34;;;;;;;11.18;4.93;;;21.50;30.90;;;;;;10189468;28;20040;-84
2021/04/27 13:27:32;;;;;;;17.50;4.75;;;21.40;31.00;;;;;;10182204;28;20052;-83
2021/04/27 13:32:28;;;;;;;7.03;4.43;;;;;;;;;;10182167;28;20056;-81
2021/04/27 13:37:22;;;;;;;9.40;4.47;;;;;;;;;;10164397;28;20498;-81
2021/04/27 13:42:17;;;;;;;9.27;4.47;;;;;;;;;;10181921;28;20474;-81
2021/04/27 13:47:11;;;;;;;9.82;4.10;;;;;;;;;;10182047;28;20040;-82
2021/04/27 13:52:18;;;;;;;9.77;4.13;;;21.30;35.70;;;;;;10182396;28;20068;-81
2021/04/27 13:57:20;;;;;;;8.75;3.95;;;19.40;33.20;;;;;;10181859;28;20060;-79
2021/04/27 14:02:16;;;;;;;10.63;4.78;;;20.20;35.80;;;;;;10179253;28;20115;-80
2021/04/27 14:07:15;;;;;;;9.95;5.07;;;;;;;;;;10177848;28;20044;-81
2021/04/27 14:12:09;;;;;;;7.93;3.35;;;;;;;;;;10177689;28;20040;-80
2021/04/27 14:17:07;;;;;;;8.43;4.32;;;;;;;;;;10179724;28;20458;-78
2021/04/27 14:22:02;;;;;;;10.07;3.63;;;;;;;;;;10181768;28;20504;-79
2021/04/27 14:26:56;;;;;;;8.20;4.38;;;;;;;;;;10163974;28;20388;-79
2021/04/27 14:31:52;;;;;;;12.25;4.72;;;;;;;;;;10182313;28;20394;-79
2021/04/27 14:36:48;;;;;;;8.48;3.90;;;;;;;;;;10182034;28;20051;-78
2021/04/27 14:42:12;;;;;;;10.93;3.85;;;;;;;;;;10183068;28;20043;-81
2021/04/27 14:47:08;;;;;;;6.07;3.30;;;;;;;;;;10181222;28;20060;-79
2021/04/27 14:52:15;;;;;;;9.30;3.80;;;;;;;;;;10178636;28;20664;-83
2021/04/27 14:57:10;;;;;;;7.30;3.88;;;;;;;;;;10180498;28;20096;-79
2021/04/27 15:02:05;;;;;;;8.68;3.55;;;;;;;;;;10182828;28;20068;-84
2021/04/27 15:06:59;;;;;;;5.95;3.70;;;;;;;;;;10181712;28;20059;-81
2021/04/27 15:11:59;;;;;;;6.70;3.17;;;;;;;;;;10200058;28;20075;-83
2021/04/27 15:16:53;;;;;;;5.88;3.55;;;;;;;;;;10186894;28;20064;-84
2021/04/27 15:21:48;;;;;;;7.65;3.17;;;;;;;;;;10192021;28;20123;-84
2021/04/27 15:26:49;;;;;;;6.53;3.80;;;;;;;;;;10200868;28;20166;-87
2021/04/27 15:31:49;;;;;;;10.43;3.63;;;;;;;;;;10171098;28;20048;-87
2021/04/27 15:36:44;;;;;;;7.95;3.30;;;;;;;;;;10192732;28;20072;-84
2021/04/27 15:41:39;;;;;;;6.68;3.28;;;;;;;;;;10189523;28;20040;-85
2021/04/27 15:46:38;;;;;;;7.53;3.10;;;17.40;33.50;;;;;;10186786;28;20210;-85
2021/04/27 15:51:35;;;;;;;6.13;3.50;;;17.70;34.20;;;;;;10171560;28;20047;-82
2021/04/27 15:56:30;;;;;;;5.28;3.00;;;;;;;;;;10181827;28;20058;-85
2021/04/27 16:01:24;;;;;;;8.75;2.90;;;;;;;;;;10171019;28;20100;-82
2021/04/27 16:06:18;;;;;;;7.65;3.40;;;;;;;;;;10187794;28;20093;-85
2021/04/27 16:11:13;;;;;;;8.60;2.90;;;17.40;36.90;;;;;;10193052;28;20127;-86
2021/04/27 16:16:09;;;;;;;6.15;2.92;;;17.40;33.20;;;;;;10201077;28;20122;-85
2021/04/27 16:21:03;;;;;;;7.70;3.40;;;;;;;;;;10203397;28;20490;-83
2021/04/27 16:25:59;;;;;;;7.40;3.55;;;18.60;37.10;;;;;;10180537;28;20055;-85
2021/04/27 16:30:53;;;;;;;7.03;3.13;;;15.60;31.90;;;;;;10179863;28;20165;-82
2021/04/27 16:35:47;;;;;;;10.00;4.85;;;;;;;;;;10184970;28;20517;-83
2021/04/27 16:40:41;;;;;;;7.53;3.25;;;;;;;;;;10185517;28;20065;-82
2021/04/27 16:45:35;;;;;;;9.02;3.13;;;18.60;33.00;;;;;;10183895;28;20058;-82
2021/04/27 16:50:30;;;;;;;7.03;3.08;;;16.60;32.80;;;;;;10189271;28;20036;-87
2021/04/27 16:55:24;;;;;;;4.90;3.22;;;18.10;32.80;;;;;;10196956;28;20066;-86
2021/04/27 17:00:20;;;;;;;9.25;3.78;;;;;;;;;;10169060;28;20092;-87
2021/04/27 17:05:15;;;;;;;9.00;3.50;;;;;;;;;;10183982;28;20048;-87
2021/04/27 17:10:12;;;;;;;10.52;3.80;;;;;;;;;;10186060;28;20482;-87
2021/04/27 17:15:07;;;;;;;5.55;3.17;;;;;;;;;;10186128;28;20040;-86
2021/04/27 17:20:01;;;;;;;9.40;3.30;;;;;;;;;;10186357;28;20051;-88
2021/04/27 17:24:54;;;;;;;7.63;3.20;;;;;;;;;;10186884;28;20074;-87
2021/04/27 17:29:50;;;;;;;9.63;3.20;;;15.70;36.90;;;;;;10193582;28;20511;-87
2021/04/27 17:34:44;;;;;;;6.75;3.15;;;16.00;35.60;;;;;;10174046;28;20498;-87
2021/04/27 17:39:38;;;;;;;11.60;4.00;;;;;;;;;;10197888;28;20051;-86
2021/04/27 17:44:32;;;;;;;10.77;3.60;;;16.50;37.10;;;;;;10195811;28;20466;-86
2021/04/27 17:49:27;;;;;;;7.45;3.88;;;;;;;;;;10203986;28;20044;-84
2021/04/27 17:54:21;;;;;;;5.88;3.75;;;16.00;34.50;;;;;;10172417;28;20052;-83
2021/04/27 17:59:17;;;;;;;6.35;3.17;;;15.80;34.60;;;;;;10143192;28;20391;-82
2021/04/27 18:04:10;;;;;;;8.73;3.50;;;15.80;34.70;;;;;;10140956;28;20067;-80
2021/04/27 18:09:06;;;;;;;8.35;3.25;;;15.80;34.70;;;;;;10123901;28;20060;-78
2021/04/27 18:14:01;;;;;;;6.47;3.95;;;15.70;34.40;;;;;;10140402;28;20090;-79
2021/04/27 18:18:56;;;;;;;7.63;3.47;;;15.70;35.00;;;;;;10141084;28;20076;-80
2021/04/27 18:23:50;;;;;;;7.72;3.80;;;15.60;35.00;;;;;;10140904;28;20507;-76
2021/04/27 18:28:46;;;;;;;8.70;3.40;;;15.50;34.70;;;;;;10143678;28;20481;-81
2021/04/27 18:33:43;;;;;;;6.22;3.38;;;15.40;34.80;;;;;;10139146;28;20514;-79
2021/04/27 18:38:37;;;;;;;9.32;4.05;;;15.50;35.20;;;;;;10139716;28;20491;-85
2021/04/27 18:43:33;;;;;;;8.68;4.15;;;;;;;;;;10141962;28;20244;-79
2021/04/27 18:48:28;;;;;;;7.68;4.07;;;15.60;35.10;;;;;;10141997;28;20049;-81
2021/04/27 18:53:22;;;;;;;6.55;4.03;;;15.30;35.20;;;;;;10138206;28;20419;-82
2021/04/27 18:58:17;;;;;;;7.07;3.70;;;15.30;35.10;;;;;;10120317;28;20125;-88
2021/04/27 19:03:10;;;;;;;7.38;3.85;;;;;;;;;;10140231;28;20041;-80
2021/04/27 19:08:06;;;;;;;8.55;3.35;;;15.20;35.40;;;;;;10141009;28;20044;-80
2021/04/27 19:13:00;;;;;;;10.82;4.40;;;15.10;35.40;;;;;;10142249;28;20044;-83
2021/04/27 19:17:55;;;;;;;11.32;3.88;;;15.20;36.00;;;;;;10140401;28;20135;-75
2021/04/27 19:22:52;;;;;;;9.55;4.28;;;15.20;35.60;;;;;;10139995;28;20086;-76
2021/04/27 19:27:49;;;;;;;11.15;4.10;;;15.50;35.90;;;;;;10138592;28;20052;-76
2021/04/27 19:32:43;;;;;;;10.77;4.60;;;15.10;35.80;;;;;;10138511;28;20082;-75
2021/04/27 19:37:37;;;;;;;11.50;5.22;;;15.10;35.80;;;;;;10138410;28;20039;-76
2021/04/27 19:42:32;;;;;;;10.52;4.43;;;15.10;35.80;;;;;;10138786;28;20052;-76
2021/04/27 19:47:27;;;;;;;7.63;3.85;;;;;;;;;;10139133;28;20071;-75
2021/04/27 19:52:21;;;;;;;8.23;3.92;;;16.70;43.00;;;;;;10139667;28;20518;-78
2021/04/27 19:57:15;;;;;;;10.57;3.80;;;15.50;41.20;;;;;;10139694;28;20159;-76
2021/04/27 20:02:28;;;;;;;12.50;4.78;;;;;;;;;;10125320;28;20105;-75
2021/04/27 20:07:24;;;;;;;10.38;4.82;;;15.40;36.20;;;;;;10145344;28;20057;-79
2021/04/27 20:12:18;;;;;;;5.70;3.90;;;;;;;;;;10146293;28;20056;-77
2021/04/27 20:17:14;;;;;;;7.03;4.15;;;15.60;40.60;;;;;;10144841;28;20102;-76
2021/04/27 20:22:12;;;;;;;12.27;4.22;;;15.20;40.40;;;;;;10128936;28;20097;-75
2021/04/27 20:27:07;;;;;;;8.57;3.40;;;;;;;;;;10147234;28;20049;-75
2021/04/27 20:32:03;;;;;;;8.55;3.78;;;;;;;;;;10146104;28;20048;-77
2021/04/27 20:36:58;;;;;;;6.68;3.13;;;15.00;36.00;;;;;;10128945;28;20131;-76
2021/04/27 20:42:04;;;;;;;6.05;3.35;;;14.90;39.80;;;;;;10144061;28;20049;-76
2021/04/27 20:46:58;;;;;;;6.43;3.60;;;14.70;35.40;;;;;;10147976;28;20045;-77
2021/04/27 20:51:53;;;;;;;8.80;4.15;;;14.70;35.10;;;;;;10141872;28;20076;-76
2021/04/27 20:56:46;;;;;;;11.63;3.70;;;14.50;35.50;;;;;;10143023;28;20055;-75
2021/04/27 21:01:42;;;;;;;9.50;3.75;;;14.70;35.20;;;;;;10144678;28;20048;-74
2021/04/27 21:06:38;;;;;;;7.32;3.60;;;14.60;35.10;;;;;;10143697;28;20053;-75
2021/04/27 21:11:32;;;;;;;7.22;3.97;;;14.80;35.50;;;;;;10143978;28;20547;-75
2021/04/27 21:16:28;;;;;;;8.50;4.03;;;15.40;35.80;;;;;;10142288;28;20055;-74
2021/04/27 21:21:22;;;;;;;9.73;3.88;;;14.40;35.10;;;;;;10143510;28;20063;-77
2021/04/27 21:26:18;;;;;;;9.15;3.10;;;14.40;35.10;;;;;;10141713;28;20048;-75
2021/04/27 21:31:13;;;;;;;5.63;3.53;;;14.20;35.00;;;;;;10142414;28;20049;-76
2021/04/27 21:36:08;;;;;;;12.02;3.25;;;14.20;35.10;;;;;;10122996;28;20185;-75
2021/04/27 21:41:03;;;;;;;10.85;4.05;;;13.70;39.20;;;;;;10173804;28;20132;-76
2021/04/27 21:45:57;;;;;;;10.48;3.45;;;16.80;43.00;;;;;;10184499;28;20084;-73
2021/04/27 21:50:50;;;;;;;12.50;3.90;;;;;;;;;;10150252;28;20460;-79
2021/04/27 21:55:45;;;;;;;9.68;4.20;;;14.20;34.60;;;;;;10171135;28;20504;-77
2021/04/27 22:00:40;;;;;;;7.65;3.60;;;14.10;34.70;;;;;;10143637;28;20047;-76
2021/04/27 22:05:34;;;;;;;10.43;3.47;;;14.10;34.80;;;;;;10142387;28;20048;-77
2021/04/27 22:10:30;;;;;;;7.80;3.60;;;14.10;34.80;;;;;;10141697;28;20051;-76
2021/04/27 22:15:24;;;;;;;6.35;3.63;;;14.00;34.60;;;;;;10142102;28;20052;-75
2021/04/27 22:20:20;;;;;;;5.78;3.33;;;13.90;34.70;;;;;;10142782;28;20068;-76
2021/04/27 22:25:18;;;;;;;6.45;2.92;;;13.90;34.70;;;;;;10108323;28;20131;-77
2021/04/27 22:30:14;;;;;;;10.18;3.35;;;13.90;34.80;;;;;;10141301;28;20052;-74
2021/04/27 22:35:10;;;;;;;9.73;3.50;;;13.90;34.60;;;;;;10138883;28;20056;-75
2021/04/27 22:40:11;;;;;;;7.22;3.45;;;13.90;34.30;;;;;;10164508;28;20067;-74
2021/04/27 22:45:07;;;;;;;7.13;3.28;;;13.90;34.40;;;;;;10180384;28;20048;-74
2021/04/27 22:50:00;;;;;;;7.82;3.20;;;13.10;34.50;;;;;;10178745;28;20047;-78
2021/04/27 22:54:54;;;;;;;5.18;2.88;;;;;;;;;;10177643;28;20056;-78
2021/04/27 22:59:48;;;;;;;7.15;2.97;;;;;;;;;;10175746;28;20472;-78
2021/04/27 23:04:41;;;;;;;5.88;2.80;;;;;;;;;;10162116;28;20474;-78
2021/04/27 23:09:34;;;;;;;4.05;2.67;;;13.70;34.00;;;;;;10141303;28;20048;-79
2021/04/27 23:14:28;;;;;;;6.45;2.92;;;13.60;34.00;;;;;;10148914;28;20429;-81
2021/04/27 23:19:22;;;;;;;4.75;2.67;;;13.60;34.00;;;;;;10138482;28;20049;-82
2021/04/27 23:24:16;;;;;;;7.30;2.78;;;13.60;33.80;;;;;;10139480;28;20139;-83
2021/04/27 23:29:09;;;;;;;5.35;2.80;;;13.60;33.80;;;;;;10139808;28;20040;-82
2021/04/27 23:34:03;;;;;;;3.80;2.55;;;13.60;34.10;;;;;;10123836;28;20055;-83
2021/04/27 23:38:58;;;;;;;6.53;3.20;;;13.60;34.20;;;;;;10150008;28;20114;-83
2021/04/27 23:43:51;;;;;;;5.35;2.90;;;13.60;34.10;;;;;;10147882;28;20066;-83
2021/04/27 23:48:45;;;;;;;5.22;3.17;;;13.50;33.70;;;;;;10146804;28;20427;-84
2021/04/27 23:53:39;;;;;;;5.78;2.38;;;14.60;34.60;;;;;;10161443;28;20057;-81
2021/04/27 23:58:34;;;;;;;5.82;3.10;;;14.80;34.70;;;;;;10146310;28;20054;-81
